Time;durP1;ratioP1;P1;durP2;ratioP2;P2;SDS_P1;SDS_P2;PMS_P1;PMS_P2;Temp;Humidity;BMP_temperature;BMP_pressure;BME280_temperature;BME280_humidity;BME280_pressure;Samples;Min_cycle;Max_cycle;Signal;HPM_P1;HPM_P2
2020/12/16 00:02:18;;;;;;;39.40;18.90;;;7.80;99.90;;;;;;4950497;29;20513;-82
2020/12/16 00:04:45;;;;;;;35.92;18.85;;;7.80;99.90;;;;;;4953451;29;20215;-81
2020/12/16 00:07:12;;;;;;;42.75;20.20;;;7.80;99.90;;;;;;4952687;29;20330;-82
2020/12/16 00:09:39;;;;;;;39.80;18.70;;;7.80;99.90;;;;;;4953515;29;20226;-80
2020/12/16 00:12:06;;;;;;;41.55;18.50;;;7.70;99.90;;;;;;4955618;28;20211;-82
2020/12/16 00:14:32;;;;;;;30.13;17.08;;;7.70;99.90;;;;;;4959905;28;20200;-80
2020/12/16 00:16:59;;;;;;;39.63;18.65;;;7.70;99.90;;;;;;4959398;28;20232;-79
2020/12/16 00:19:25;;;;;;;31.45;16.13;;;7.70;99.90;;;;;;4960534;28;20198;-81
2020/12/16 00:21:52;;;;;;;31.67;16.02;;;7.70;99.90;;;;;;4952310;28;20212;-85
2020/12/16 00:24:19;;;;;;;25.90;15.18;;;7.60;99.90;;;;;;4953276;28;20212;-82
2020/12/16 00:26:45;;;;;;;35.97;17.75;;;7.60;99.90;;;;;;4954503;29;20583;-84
2020/12/16 00:29:12;;;;;;;26.92;14.70;;;7.60;99.90;;;;;;4949679;29;20217;-85
2020/12/16 00:31:39;;;;;;;32.85;17.02;;;7.60;99.90;;;;;;4951133;29;20250;-81
2020/12/16 00:34:06;;;;;;;23.98;14.70;;;7.60;99.90;;;;;;4952160;29;20216;-81
2020/12/16 00:36:36;;;;;;;22.08;15.25;;;7.50;99.90;;;;;;4960701;28;20240;-80
2020/12/16 00:39:04;;;;;;;25.38;15.82;;;7.60;99.90;;;;;;4961509;28;20181;-83
2020/12/16 00:41:31;;;;;;;25.85;14.88;;;7.50;99.90;;;;;;4959170;28;20201;-82
2020/12/16 00:43:58;;;;;;;31.48;16.00;;;7.50;99.90;;;;;;4946878;29;20243;-84
2020/12/16 00:46:24;;;;;;;31.60;17.08;;;7.40;99.90;;;;;;4947542;29;20233;-83
2020/12/16 00:48:51;;;;;;;26.25;15.88;;;7.50;99.90;;;;;;4950074;29;20201;-82
2020/12/16 00:51:18;;;;;;;20.63;14.40;;;7.40;99.90;;;;;;4955016;29;20213;-84
2020/12/16 00:53:44;;;;;;;23.60;15.90;;;7.30;99.90;;;;;;4956213;29;20208;-83
2020/12/16 00:56:11;;;;;;;25.63;15.25;;;7.30;99.90;;;;;;4952288;29;20250;-82
2020/12/16 00:58:39;;;;;;;28.50;16.65;;;7.20;99.90;;;;;;4953139;29;20228;-83
2020/12/16 01:01:06;;;;;;;24.20;15.45;;;7.20;99.90;;;;;;4949949;29;20201;-83
2020/12/16 01:03:33;;;;;;;24.05;15.80;;;7.20;99.90;;;;;;4955951;28;20213;-85
2020/12/16 01:05:59;;;;;;;22.50;16.17;;;7.20;99.90;;;;;;4959197;29;20232;-84
2020/12/16 01:08:26;;;;;;;22.95;15.20;;;7.20;99.90;;;;;;4959898;28;20203;-82
2020/12/16 01:10:53;;;;;;;20.65;14.05;;;7.20;99.90;;;;;;4960035;28;20196;-86
2020/12/16 01:13:20;;;;;;;26.02;16.30;;;7.10;99.90;;;;;;4959771;28;20386;-82
2020/12/16 01:15:47;;;;;;;23.27;16.73;;;7.10;99.90;;;;;;4950450;29;20215;-83
2020/12/16 01:18:14;;;;;;;23.02;16.40;;;7.10;99.90;;;;;;4947739;29;20254;-83
2020/12/16 01:20:40;;;;;;;26.95;17.60;;;7.10;99.90;;;;;;4957724;29;20212;-83
2020/12/16 01:23:07;;;;;;;23.77;16.80;;;7.10;99.90;;;;;;4959040;28;20212;-82
2020/12/16 01:25:34;;;;;;;22.73;16.52;;;7.10;99.90;;;;;;4959373;28;20231;-80
2020/12/16 01:28:01;;;;;;;23.25;16.58;;;7.10;99.90;;;;;;4956377;28;20249;-81
2020/12/16 01:30:28;;;;;;;26.25;17.40;;;7.00;99.90;;;;;;4951013;29;20298;-84
2020/12/16 01:32:57;;;;;;;29.05;17.08;;;7.00;99.90;;;;;;4947244;29;20675;-81
2020/12/16 01:35:24;;;;;;;32.90;17.90;;;7.00;99.90;;;;;;4946832;29;20300;-84
2020/12/16 01:37:51;;;;;;;32.78;18.77;;;6.90;99.90;;;;;;4947308;29;20232;-80
2020/12/16 01:40:22;;;;;;;34.40;17.70;;;6.90;99.90;;;;;;4957893;28;20192;-82
2020/12/16 01:42:49;;;;;;;26.13;17.38;;;6.80;99.90;;;;;;4958624;28;20204;-81
2020/12/16 01:45:19;;;;;;;27.90;16.98;;;6.80;99.90;;;;;;4958796;28;20228;-80
2020/12/16 01:47:45;;;;;;;27.90;17.05;;;6.80;99.90;;;;;;4955200;28;20264;-83
2020/12/16 01:50:13;;;;;;;24.83;16.40;;;6.80;99.90;;;;;;4950186;29;20232;-84
2020/12/16 01:52:41;;;;;;;20.48;13.95;;;6.70;99.90;;;;;;4950764;29;20209;-82
2020/12/16 01:55:09;;;;;;;22.88;15.65;;;6.70;99.90;;;;;;4949852;29;20291;-82
2020/12/16 01:57:37;;;;;;;22.30;13.13;;;6.70;99.90;;;;;;4951687;29;20233;-81
2020/12/16 02:00:06;;;;;;;35.47;17.00;;;6.70;99.90;;;;;;4956318;29;20218;-81
2020/12/16 02:02:37;;;;;;;22.95;14.25;;;6.60;99.90;;;;;;4957245;28;20232;-82
2020/12/16 02:05:05;;;;;;;33.92;15.18;;;6.60;99.90;;;;;;4957266;29;20204;-81
2020/12/16 02:07:33;;;;;;;31.13;15.20;;;6.60;99.90;;;;;;4948680;29;20232;-82
2020/12/16 02:09:59;;;;;;;42.20;18.25;;;6.60;99.90;;;;;;4946286;29;20575;-83
2020/12/16 02:12:32;;;;;;;41.22;19.95;;;6.50;99.90;;;;;;4947554;29;20216;-83
2020/12/16 02:14:58;;;;;;;38.28;18.27;;;6.60;99.90;;;;;;4949185;29;20209;-84
2020/12/16 02:17:25;;;;;;;30.63;18.15;;;6.60;99.90;;;;;;4945893;29;20334;-85
2020/12/16 02:19:55;;;;;;;26.08;17.30;;;6.50;99.90;;;;;;4946220;29;20212;-83
2020/12/16 02:22:22;;;;;;;25.50;17.92;;;6.50;99.90;;;;;;4944898;29;20222;-80
2020/12/16 02:25:01;;;;;;;24.00;17.67;;;6.60;99.90;;;;;;4946716;29;20213;-83
2020/12/16 02:27:28;;;;;;;24.80;16.80;;;6.60;99.90;;;;;;4946406;29;20223;-82
2020/12/16 02:29:55;;;;;;;20.38;16.17;;;6.70;99.90;;;;;;4947255;29;20264;-78
2020/12/16 02:32:24;;;;;;;19.45;15.85;;;6.70;99.90;;;;;;4954242;29;20202;-80
2020/12/16 02:34:51;;;;;;;20.80;16.50;;;6.80;99.90;;;;;;4949390;29;20215;-80
2020/12/16 02:37:18;;;;;;;20.60;16.00;;;6.90;99.90;;;;;;4951395;28;20227;-80
2020/12/16 02:39:45;;;;;;;18.90;16.40;;;6.90;99.90;;;;;;4958479;28;20208;-81
2020/12/16 02:42:13;;;;;;;18.92;15.38;;;7.00;99.90;;;;;;4957403;28;20220;-81
2020/12/16 02:44:40;;;;;;;21.77;16.75;;;7.10;99.90;;;;;;4950048;29;20796;-82
2020/12/16 02:47:07;;;;;;;19.05;15.25;;;7.20;99.90;;;;;;4952718;29;20228;-80
2020/12/16 02:49:33;;;;;;;19.75;15.52;;;7.20;99.90;;;;;;4952861;29;20231;-82
2020/12/16 02:52:00;;;;;;;21.10;16.00;;;7.10;99.90;;;;;;4960424;29;20219;-83
2020/12/16 02:54:27;;;;;;;19.92;15.40;;;7.20;99.90;;;;;;4962236;29;20195;-84
2020/12/16 02:56:55;;;;;;;22.75;15.77;;;7.20;99.90;;;;;;4961445;28;20224;-82
2020/12/16 02:59:23;;;;;;;20.77;16.88;;;7.20;99.90;;;;;;4961512;28;20203;-84
2020/12/16 03:01:51;;;;;;;18.58;16.33;;;7.10;99.90;;;;;;4960842;28;20228;-83
2020/12/16 03:04:18;;;;;;;23.58;16.48;;;7.10;99.90;;;;;;4961805;28;20214;-84
2020/12/16 03:06:47;;;;;;;19.52;16.15;;;7.10;99.90;;;;;;4960550;29;20236;-84
2020/12/16 03:09:14;;;;;;;20.98;15.45;;;7.20;99.90;;;;;;4961171;29;20201;-82
2020/12/16 03:11:41;;;;;;;20.65;17.05;;;7.10;99.90;;;;;;4962122;28;20235;-84
2020/12/16 03:14:08;;;;;;;19.35;16.15;;;7.10;99.90;;;;;;4962041;28;20193;-84
2020/12/16 03:16:35;;;;;;;19.50;15.95;;;7.10;99.90;;;;;;4978675;23;20306;-79
2020/12/16 03:19:02;;;;;;;17.08;14.30;;;7.10;99.90;;;;;;4942377;29;20234;-78
2020/12/16 03:21:29;;;;;;;17.50;14.55;;;7.20;99.90;;;;;;4939627;29;20350;-78
2020/12/16 03:23:59;;;;;;;18.13;14.75;;;7.20;99.90;;;;;;4941120;29;20240;-79
2020/12/16 03:26:26;;;;;;;20.13;16.23;;;7.10;99.90;;;;;;4941197;29;20259;-79
2020/12/16 03:28:55;;;;;;;18.58;14.35;;;7.10;99.90;;;;;;4940675;29;20215;-79
2020/12/16 03:31:22;;;;;;;17.33;14.48;;;7.20;99.90;;;;;;4948033;29;20232;-78
2020/12/16 03:33:49;;;;;;;17.50;14.25;;;7.20;99.90;;;;;;4950773;29;20200;-79
2020/12/16 03:36:19;;;;;;;18.60;16.08;;;7.20;99.90;;;;;;4957584;29;20211;-78
2020/12/16 03:38:47;;;;;;;18.95;15.18;;;7.20;99.90;;;;;;4950448;29;20244;-78
2020/12/16 03:41:15;;;;;;;17.08;14.52;;;7.20;99.90;;;;;;4954891;29;20213;-78
2020/12/16 03:43:44;;;;;;;17.63;14.95;;;7.20;99.90;;;;;;4960063;28;20235;-79
2020/12/16 03:46:11;;;;;;;16.45;14.70;;;7.30;99.90;;;;;;4960602;28;20237;-78
2020/12/16 03:48:39;;;;;;;16.33;14.35;;;7.30;99.90;;;;;;4959968;28;20208;-80
2020/12/16 03:51:08;;;;;;;17.35;15.13;;;7.30;99.90;;;;;;4962439;28;20263;-79
2020/12/16 03:53:35;;;;;;;19.35;15.45;;;7.30;99.90;;;;;;4962242;28;20236;-79
2020/12/16 03:56:05;;;;;;;17.40;15.18;;;7.30;99.90;;;;;;4938386;29;20289;-79
2020/12/16 03:58:31;;;;;;;15.90;14.20;;;7.30;99.90;;;;;;4938038;29;20259;-78
2020/12/16 04:00:58;;;;;;;21.33;16.80;;;7.30;99.90;;;;;;4943334;29;20216;-79
2020/12/16 04:03:24;;;;;;;18.30;15.02;;;7.40;99.90;;;;;;4942915;29;20220;-78
2020/12/16 04:05:51;;;;;;;17.40;14.20;;;7.40;99.90;;;;;;4939828;29;20269;-77
2020/12/16 04:08:18;;;;;;;18.67;14.82;;;7.30;99.90;;;;;;4936611;29;20240;-77
2020/12/16 04:10:45;;;;;;;17.73;14.43;;;7.40;99.90;;;;;;4937024;29;20599;-78
2020/12/16 04:13:14;;;;;;;17.30;15.23;;;7.40;99.90;;;;;;4937308;29;20253;-77
2020/12/16 04:15:42;;;;;;;18.75;16.10;;;7.40;99.90;;;;;;4937415;29;20776;-79
2020/12/16 04:18:08;;;;;;;18.25;14.18;;;7.50;99.90;;;;;;4936677;29;20807;-78
2020/12/16 04:20:38;;;;;;;15.02;13.48;;;7.40;99.90;;;;;;4937714;29;20771;-78
2020/12/16 04:23:05;;;;;;;17.30;13.55;;;7.40;99.90;;;;;;4942437;29;20200;-78
2020/12/16 04:25:32;;;;;;;14.43;12.63;;;7.30;99.90;;;;;;4942008;29;20325;-77
2020/12/16 04:27:59;;;;;;;16.73;13.65;;;7.30;99.90;;;;;;4936924;29;20290;-78
2020/12/16 04:30:25;;;;;;;14.73;11.85;;;7.30;99.90;;;;;;4937330;29;20244;-79
2020/12/16 04:32:56;;;;;;;17.63;11.93;;;7.40;99.90;;;;;;4937351;29;20240;-78
2020/12/16 04:35:24;;;;;;;14.32;12.07;;;7.30;99.90;;;;;;4937033;29;20582;-78
2020/12/16 04:37:50;;;;;;;16.45;12.02;;;7.40;99.90;;;;;;4947002;29;20779;-78
2020/12/16 04:40:17;;;;;;;18.15;12.90;;;7.40;99.90;;;;;;4946302;29;20704;-76
2020/12/16 04:42:45;;;;;;;13.65;11.27;;;7.40;99.90;;;;;;4943171;29;20278;-79
2020/12/16 04:45:12;;;;;;;17.90;13.50;;;7.50;99.90;;;;;;4942149;29;20272;-77
2020/12/16 04:47:39;;;;;;;13.82;11.73;;;7.60;99.90;;;;;;4949197;29;20296;-79
2020/12/16 04:50:06;;;;;;;13.45;11.10;;;7.60;99.90;;;;;;4942361;29;20220;-79
2020/12/16 04:52:34;;;;;;;17.55;11.57;;;7.60;99.90;;;;;;4942303;29;20236;-78
2020/12/16 04:55:00;;;;;;;15.85;11.88;;;7.60;99.90;;;;;;4936756;29;20291;-78
2020/12/16 04:57:27;;;;;;;16.10;10.80;;;7.60;99.90;;;;;;4936822;29;20327;-78
2020/12/16 04:59:57;;;;;;;14.57;10.80;;;7.50;99.90;;;;;;4941271;29;20276;-79
2020/12/16 05:02:24;;;;;;;13.80;9.90;;;7.50;99.90;;;;;;4956907;28;20189;-79
2020/12/16 05:04:53;;;;;;;18.23;10.27;;;7.40;99.90;;;;;;4958962;28;20212;-79
2020/12/16 05:07:29;;;;;;;16.23;11.27;;;7.40;99.90;;;;;;4959140;28;20276;-78
2020/12/16 05:09:56;;;;;;;16.05;10.82;;;7.30;99.90;;;;;;4959479;28;20228;-80
2020/12/16 05:12:23;;;;;;;18.58;10.10;;;7.30;99.90;;;;;;4959635;28;20204;-79
2020/12/16 05:14:49;;;;;;;14.98;10.32;;;7.30;99.90;;;;;;4959887;28;20200;-79
2020/12/16 05:17:16;;;;;;;12.25;9.57;;;7.20;99.90;;;;;;4959317;28;20255;-77
2020/12/16 05:19:44;;;;;;;12.55;8.65;;;7.20;99.90;;;;;;4960249;28;20211;-76
2020/12/16 05:22:23;;;;;;;13.30;9.10;;;7.30;99.90;;;;;;4952530;28;20212;-77
2020/12/16 05:24:52;;;;;;;13.82;9.45;;;7.30;99.90;;;;;;4951061;29;20283;-78
2020/12/16 05:27:22;;;;;;;13.98;9.35;;;7.30;99.90;;;;;;4952204;29;20337;-78
2020/12/16 05:29:54;;;;;;;14.23;9.57;;;7.30;99.90;;;;;;4954764;29;20214;-78
2020/12/16 05:32:24;;;;;;;14.73;9.93;;;7.30;99.90;;;;;;4953022;29;20305;-78
2020/12/16 05:34:52;;;;;;;12.23;9.13;;;7.30;99.90;;;;;;4954440;28;20200;-79
2020/12/16 05:37:29;;;;;;;12.68;9.10;;;7.30;99.90;;;;;;4951922;29;20235;-77
2020/12/16 05:40:01;;;;;;;18.38;12.20;;;7.40;99.90;;;;;;4954653;29;20212;-79
2020/12/16 05:42:28;;;;;;;21.85;12.23;;;7.40;99.90;;;;;;4958670;28;20227;-77
2020/12/16 05:44:57;;;;;;;19.48;11.57;;;7.30;99.90;;;;;;4952637;29;20212;-78
2020/12/16 05:47:25;;;;;;;18.00;11.18;;;7.30;99.90;;;;;;4949544;29;20224;-78
2020/12/16 05:49:51;;;;;;;19.63;13.00;;;7.40;99.90;;;;;;4949915;29;20503;-77
2020/12/16 05:52:18;;;;;;;19.00;10.93;;;7.50;99.90;;;;;;4949733;29;20212;-78
2020/12/16 05:54:49;;;;;;;20.27;11.60;;;7.50;99.90;;;;;;4947834;29;20224;-79
2020/12/16 05:57:18;;;;;;;20.05;11.70;;;7.50;99.90;;;;;;4958047;28;20299;-80
2020/12/16 06:00:00;;;;;;;16.75;11.32;;;7.50;99.90;;;;;;4946002;29;20219;-79
2020/12/16 06:02:33;;;;;;;18.02;12.25;;;7.50;99.90;;;;;;4940735;29;20355;-78
2020/12/16 06:05:00;;;;;;;20.58;11.82;;;7.50;99.90;;;;;;4945478;29;20201;-78
2020/12/16 06:07:27;;;;;;;18.40;12.30;;;7.50;99.90;;;;;;4954552;29;20708;-79
2020/12/16 06:09:56;;;;;;;17.58;11.05;;;7.50;99.90;;;;;;4956246;29;20607;-78
2020/12/16 06:12:27;;;;;;;17.55;12.02;;;7.50;99.90;;;;;;4956424;28;20201;-78
2020/12/16 06:15:09;;;;;;;18.27;11.93;;;7.50;99.90;;;;;;4957026;29;20239;-78
2020/12/16 06:17:43;;;;;;;20.80;12.52;;;7.50;99.90;;;;;;4952505;29;20243;-79
2020/12/16 06:20:14;;;;;;;16.63;10.57;;;7.60;99.90;;;;;;4942257;29;20200;-79
2020/12/16 06:22:42;;;;;;;23.75;13.23;;;7.60;99.90;;;;;;4942076;29;20203;-79
2020/12/16 06:25:11;;;;;;;20.75;14.13;;;7.60;99.90;;;;;;4943430;29;20229;-77
2020/12/16 06:27:46;;;;;;;19.35;13.38;;;7.50;99.90;;;;;;4942255;29;20256;-79
2020/12/16 06:30:16;;;;;;;19.63;12.52;;;7.40;99.90;;;;;;4947745;29;20235;-77
2020/12/16 06:32:48;;;;;;;22.50;12.77;;;7.30;99.90;;;;;;4945677;29;20632;-79
2020/12/16 06:35:19;;;;;;;18.42;12.38;;;7.40;99.90;;;;;;4945387;29;20216;-79
2020/12/16 06:37:46;;;;;;;17.75;12.23;;;7.40;99.90;;;;;;4951811;29;20280;-79
2020/12/16 06:40:41;;;;;;;21.67;12.73;;;7.40;99.90;;;;;;4944021;29;20239;-78
2020/12/16 06:43:35;;;;;;;18.45;12.75;;;7.40;99.90;;;;;;4941726;29;20224;-79
2020/12/16 06:46:03;;;;;;;16.02;11.40;;;7.50;99.90;;;;;;4941976;29;20300;-79
2020/12/16 06:48:34;;;;;;;18.23;12.85;;;7.50;99.90;;;;;;4942575;29;20327;-79
2020/12/16 06:51:16;;;;;;;15.80;11.30;;;7.40;99.90;;;;;;4940571;29;20248;-78
2020/12/16 06:53:44;;;;;;;15.65;11.30;;;7.40;99.90;;;;;;4936923;29;20707;-80
2020/12/16 06:56:11;;;;;;;16.83;13.43;;;7.40;99.90;;;;;;4946116;29;20276;-79
2020/12/16 06:58:37;;;;;;;17.23;12.60;;;7.30;99.90;;;;;;4942519;29;20208;-79
2020/12/16 07:01:12;;;;;;;16.10;11.80;;;7.40;99.90;;;;;;4941102;29;20219;-78
2020/12/16 07:03:39;;;;;;;21.85;12.65;;;7.40;99.90;;;;;;4936690;29;20243;-78
2020/12/16 07:06:10;;;;;;;20.10;13.10;;;7.50;99.90;;;;;;4934945;29;20232;-79
2020/12/16 07:08:37;;;;;;;16.75;12.38;;;7.50;99.90;;;;;;4939434;29;20208;-79
2020/12/16 07:11:03;;;;;;;14.75;11.38;;;7.50;99.90;;;;;;4940159;29;20239;-80
2020/12/16 07:13:32;;;;;;;17.50;12.05;;;7.60;99.90;;;;;;4940921;29;20219;-78
2020/12/16 07:16:01;;;;;;;21.20;12.93;;;7.70;99.90;;;;;;4940925;29;20216;-80
2020/12/16 07:18:32;;;;;;;16.77;12.20;;;7.60;99.90;;;;;;4944242;29;20241;-78
2020/12/16 07:21:17;;;;;;;16.98;12.35;;;7.70;99.90;;;;;;4944091;29;20227;-79
2020/12/16 07:23:52;;;;;;;16.05;12.57;;;7.60;99.90;;;;;;4941257;29;20212;-79
2020/12/16 07:26:25;;;;;;;18.90;12.23;;;7.70;99.90;;;;;;4937766;29;20231;-78
2020/12/16 07:28:53;;;;;;;16.65;11.15;;;7.70;99.90;;;;;;4945978;29;20216;-80
2020/12/16 07:31:19;;;;;;;15.10;11.18;;;7.70;99.90;;;;;;4955291;29;20217;-80
2020/12/16 07:33:46;;;;;;;22.70;14.48;;;7.70;99.90;;;;;;4956361;28;20233;-79
2020/12/16 07:36:14;;;;;;;19.35;13.48;;;7.70;99.90;;;;;;4957891;29;20213;-79
2020/12/16 07:38:48;;;;;;;15.10;11.35;;;7.80;99.90;;;;;;4950459;29;20319;-80
2020/12/16 07:41:25;;;;;;;16.10;12.38;;;7.80;99.90;;;;;;4944757;29;20212;-78
2020/12/16 07:43:53;;;;;;;21.10;12.70;;;7.80;99.90;;;;;;4940391;29;20601;-80
2020/12/16 07:46:27;;;;;;;21.45;13.35;;;7.90;99.90;;;;;;4959339;28;20242;-77
2020/12/16 07:49:11;;;;;;;20.23;12.82;;;7.90;99.90;;;;;;4958731;29;20272;-78
2020/12/16 07:51:43;;;;;;;21.02;12.55;;;7.80;99.90;;;;;;4958158;28;20209;-77
2020/12/16 07:54:10;;;;;;;20.35;12.40;;;7.90;99.90;;;;;;4968690;23;20323;-79
2020/12/16 07:56:36;;;;;;;19.25;12.65;;;7.90;99.90;;;;;;4937375;29;20237;-78
2020/12/16 07:59:10;;;;;;;20.05;10.60;;;7.90;99.90;;;;;;4924735;29;20288;-78
2020/12/16 08:01:37;;;;;;;17.73;11.15;;;8.00;99.90;;;;;;4920465;29;20642;-78
2020/12/16 08:04:03;;;;;;;15.43;10.80;;;8.00;99.90;;;;;;4921618;29;20649;-79
2020/12/16 08:06:30;;;;;;;16.50;10.70;;;8.00;99.90;;;;;;4924269;29;20237;-78
2020/12/16 08:08:57;;;;;;;14.40;10.90;;;8.00;99.90;;;;;;4922217;29;20274;-79
2020/12/16 08:11:25;;;;;;;12.55;9.75;;;8.00;99.90;;;;;;4923155;29;20232;-79
2020/12/16 08:13:53;;;;;;;15.32;10.45;;;8.00;99.90;;;;;;4932008;29;20231;-77
2020/12/16 08:16:19;;;;;;;16.23;10.60;;;7.90;99.90;;;;;;4940607;29;20211;-79
2020/12/16 08:18:49;;;;;;;13.02;9.93;;;7.90;99.90;;;;;;4949483;28;20193;-80
2020/12/16 08:21:18;;;;;;;14.82;9.88;;;7.90;99.90;;;;;;4938870;29;20231;-79
2020/12/16 08:23:44;;;;;;;12.05;8.85;;;8.00;99.90;;;;;;4933453;29;20710;-79
2020/12/16 08:26:11;;;;;;;13.40;9.43;;;8.00;99.90;;;;;;4934974;29;20231;-80
2020/12/16 08:28:38;;;;;;;18.20;12.25;;;8.00;99.90;;;;;;4941698;29;20305;-80
2020/12/16 08:31:05;;;;;;;10.85;8.30;;;8.10;99.90;;;;;;4941490;29;20266;-80
2020/12/16 08:33:33;;;;;;;14.40;9.23;;;8.10;99.90;;;;;;4941937;29;20226;-82
2020/12/16 08:36:01;;;;;;;15.35;10.30;;;7.90;99.90;;;;;;4943172;29;20186;-82
2020/12/16 08:38:30;;;;;;;13.02;9.32;;;8.00;99.90;;;;;;4941839;29;20224;-81
2020/12/16 08:40:57;;;;;;;13.02;10.27;;;8.10;99.90;;;;;;4939118;29;20212;-81
2020/12/16 08:43:28;;;;;;;12.38;8.60;;;8.20;99.90;;;;;;4934646;29;20221;-82
2020/12/16 08:46:04;;;;;;;11.93;9.30;;;8.20;99.90;;;;;;4935200;29;20245;-81
2020/12/16 08:48:43;;;;;;;9.43;8.25;;;8.40;99.90;;;;;;4934454;29;20261;-81
2020/12/16 08:51:13;;;;;;;9.68;8.25;;;8.50;99.90;;;;;;4932268;29;20217;-81
2020/12/16 08:53:51;;;;;;;9.93;8.07;;;8.40;99.90;;;;;;4935813;29;20232;-82
2020/12/16 08:56:30;;;;;;;9.30;8.27;;;8.60;99.90;;;;;;4938215;29;20202;-81
2020/12/16 08:59:05;;;;;;;10.57;7.80;;;8.80;99.90;;;;;;4938319;29;20215;-81
2020/12/16 09:01:32;;;;;;;10.82;8.85;;;8.80;99.90;;;;;;4937274;29;20206;-83
2020/12/16 09:03:58;;;;;;;12.38;9.10;;;8.60;99.90;;;;;;4937824;29;20214;-82
2020/12/16 09:06:25;;;;;;;13.65;10.18;;;8.30;99.90;;;;;;4937905;29;20229;-83
2020/12/16 09:08:51;;;;;;;11.77;9.73;;;8.30;99.90;;;;;;4967117;29;20204;-80
2020/12/16 09:11:19;;;;;;;15.27;11.65;;;8.40;99.90;;;;;;4956027;29;20248;-82
2020/12/16 09:13:46;;;;;;;16.88;12.35;;;8.40;99.90;;;;;;4941856;29;20209;-80
2020/12/16 09:16:20;;;;;;;15.65;11.63;;;8.40;99.90;;;;;;4934633;29;20282;-80
2020/12/16 09:18:47;;;;;;;15.50;12.65;;;8.50;99.90;;;;;;4941639;23;20277;-78
2020/12/16 09:21:15;;;;;;;15.75;12.93;;;8.60;99.90;;;;;;4917632;29;20233;-77
2020/12/16 09:23:42;;;;;;;18.55;12.95;;;8.20;99.90;;;;;;4906586;29;20215;-78
2020/12/16 09:26:08;;;;;;;19.10;12.93;;;8.30;99.90;;;;;;4898385;29;20237;-77
2020/12/16 09:28:36;;;;;;;14.27;11.77;;;8.30;99.90;;;;;;4922032;29;20699;-76
2020/12/16 09:31:16;;;;;;;15.60;11.57;;;8.40;99.90;;;;;;4925200;29;20217;-78
2020/12/16 09:33:54;;;;;;;17.75;11.90;;;8.50;99.90;;;;;;4925058;29;20608;-78
2020/12/16 09:36:24;;;;;;;15.27;11.30;;;8.40;99.90;;;;;;4931012;29;20195;-78
2020/12/16 09:38:54;;;;;;;14.35;11.35;;;8.20;99.90;;;;;;4930208;29;20234;-79
2020/12/16 09:41:21;;;;;;;14.77;11.88;;;8.10;99.90;;;;;;4925024;29;20208;-78
2020/12/16 09:43:47;;;;;;;16.90;11.88;;;8.10;99.90;;;;;;4933102;29;20229;-80
2020/12/16 09:46:18;;;;;;;15.43;11.65;;;8.20;99.90;;;;;;4934628;29;20297;-79
2020/12/16 09:48:47;;;;;;;11.52;10.30;;;8.30;99.90;;;;;;4909601;29;20228;-78
2020/12/16 09:51:15;;;;;;;11.85;10.38;;;8.40;99.90;;;;;;4911147;29;20965;-80
2020/12/16 09:53:42;;;;;;;11.07;9.75;;;8.50;99.90;;;;;;4918952;29;20296;-80
2020/12/16 09:56:09;;;;;;;13.25;11.00;;;8.60;99.90;;;;;;4921223;29;20300;-81
2020/12/16 09:58:38;;;;;;;13.18;10.75;;;8.60;99.90;;;;;;4916112;29;20227;-78
2020/12/16 10:01:05;;;;;;;11.77;10.57;;;8.70;99.90;;;;;;4917391;29;20213;-78
2020/12/16 10:03:31;;;;;;;12.10;9.43;;;8.70;99.90;;;;;;4922720;29;20291;-78
2020/12/16 10:05:59;;;;;;;12.38;11.05;;;8.70;99.90;;;;;;4918980;29;20233;-79
2020/12/16 10:08:25;;;;;;;18.15;11.80;;;8.60;99.90;;;;;;4919705;29;20608;-79
2020/12/16 10:10:51;;;;;;;12.73;10.40;;;8.70;99.90;;;;;;4922216;29;20305;-78
2020/12/16 10:13:18;;;;;;;14.10;11.80;;;8.70;99.90;;;;;;4933990;29;20263;-79
2020/12/16 10:15:44;;;;;;;12.80;10.32;;;8.80;99.90;;;;;;4937672;29;20211;-79
2020/12/16 10:18:11;;;;;;;15.25;11.35;;;8.80;99.90;;;;;;4929906;29;20273;-79
2020/12/16 10:20:37;;;;;;;11.60;10.25;;;8.90;99.90;;;;;;4936607;29;20208;-80
2020/12/16 10:23:06;;;;;;;11.02;9.90;;;9.00;99.90;;;;;;4936877;29;20219;-79
2020/12/16 10:25:32;;;;;;;10.75;9.75;;;9.10;99.90;;;;;;4920872;29;20233;-79
2020/12/16 10:27:59;;;;;;;13.48;12.10;;;9.10;99.90;;;;;;4918144;29;20274;-79
2020/12/16 10:30:26;;;;;;;12.35;11.05;;;9.20;99.90;;;;;;4919180;29;20633;-78
2020/12/16 10:32:53;;;;;;;12.02;10.82;;;9.30;99.90;;;;;;4917418;29;20496;-79
2020/12/16 10:35:19;;;;;;;12.85;11.57;;;9.40;99.80;;;;;;4904688;29;20301;-78
2020/12/16 10:37:46;;;;;;;12.40;11.10;;;9.50;99.20;;;;;;4905785;29;20269;-79
2020/12/16 10:40:13;;;;;;;13.27;11.98;;;9.60;98.70;;;;;;4906698;29;20242;-79
2020/12/16 10:42:40;;;;;;;14.55;12.70;;;9.60;98.40;;;;;;4904743;29;20209;-79
2020/12/16 10:45:09;;;;;;;14.38;12.38;;;9.70;97.80;;;;;;4922077;29;20219;-79
2020/12/16 10:47:35;;;;;;;16.67;13.93;;;9.70;96.90;;;;;;4919313;29;20233;-79
2020/12/16 10:50:03;;;;;;;14.85;13.18;;;9.80;96.60;;;;;;4923645;29;20239;-79
2020/12/16 10:52:29;;;;;;;19.00;13.60;;;9.90;95.80;;;;;;4921082;29;20235;-80
2020/12/16 10:54:56;;;;;;;15.30;13.70;;;9.80;95.20;;;;;;4920730;29;20209;-79
2020/12/16 10:57:23;;;;;;;16.00;13.70;;;9.90;95.30;;;;;;4923466;29;20265;-78
2020/12/16 10:59:50;;;;;;;15.70;13.95;;;10.00;94.30;;;;;;4917539;29;20663;-79
2020/12/16 11:02:17;;;;;;;16.20;14.50;;;10.00;94.10;;;;;;4920688;29;20244;-80
2020/12/16 11:04:44;;;;;;;15.85;14.23;;;10.00;93.50;;;;;;4922426;29;20215;-79
2020/12/16 11:07:11;;;;;;;16.30;14.63;;;9.90;93.50;;;;;;4923974;29;20622;-79
2020/12/16 11:09:37;;;;;;;19.60;16.20;;;10.00;93.50;;;;;;4930416;29;20709;-78
2020/12/16 11:12:04;;;;;;;16.27;14.57;;;10.10;93.60;;;;;;4926914;29;20250;-78
2020/12/16 11:14:30;;;;;;;17.67;15.25;;;10.20;93.20;;;;;;4923916;29;20309;-79
2020/12/16 11:16:56;;;;;;;17.38;15.57;;;10.20;92.30;;;;;;4922630;29;20210;-78
2020/12/16 11:19:24;;;;;;;16.55;14.52;;;10.20;91.40;;;;;;4924566;29;20214;-79
2020/12/16 11:21:52;;;;;;;15.68;13.43;;;10.20;91.40;;;;;;4927722;29;20270;-80
2020/12/16 11:24:23;;;;;;;18.90;15.25;;;10.20;91.30;;;;;;4928320;29;20229;-78
2020/12/16 11:26:52;;;;;;;32.85;16.27;;;10.30;91.40;;;;;;4925443;29;20313;-80
2020/12/16 11:29:22;;;;;;;17.38;14.45;;;10.40;90.90;;;;;;4914621;29;20212;-79
2020/12/16 11:31:50;;;;;;;18.30;12.88;;;10.50;90.40;;;;;;4931338;29;20223;-80
2020/12/16 11:34:21;;;;;;;16.77;12.90;;;10.60;89.90;;;;;;4924127;29;20720;-80
2020/12/16 11:36:50;;;;;;;14.95;13.35;;;10.70;89.50;;;;;;4927868;29;20212;-80
2020/12/16 11:39:17;;;;;;;20.98;12.80;;;10.70;88.50;;;;;;4924376;29;20210;-80
2020/12/16 11:41:45;;;;;;;14.73;13.00;;;10.70;87.40;;;;;;4929407;29;20211;-79
2020/12/16 11:44:13;;;;;;;16.33;12.93;;;10.70;87.30;;;;;;4926726;29;20218;-80
2020/12/16 11:46:39;;;;;;;14.35;12.95;;;10.80;86.80;;;;;;4933292;29;20220;-80
2020/12/16 11:49:05;;;;;;;14.27;12.75;;;10.90;85.50;;;;;;4928310;29;20317;-81
2020/12/16 11:51:32;;;;;;;16.00;13.70;;;10.90;85.80;;;;;;4933024;29;20201;-79
2020/12/16 11:53:59;;;;;;;17.80;11.95;;;11.00;85.60;;;;;;4932205;29;20215;-80
2020/12/16 11:56:26;;;;;;;18.38;12.35;;;11.00;85.60;;;;;;4926500;29;20230;-79
2020/12/16 11:58:53;;;;;;;14.20;12.00;;;11.00;85.60;;;;;;4944211;29;20599;-81
2020/12/16 12:01:19;;;;;;;13.48;12.07;;;11.10;85.00;;;;;;4946952;29;20231;-79
2020/12/16 12:03:46;;;;;;;21.45;11.90;;;11.00;84.50;;;;;;4940367;29;20311;-79
2020/12/16 12:06:13;;;;;;;15.90;11.98;;;10.90;85.50;;;;;;4940086;29;20276;-80
2020/12/16 12:08:40;;;;;;;12.50;11.20;;;10.80;85.40;;;;;;4926482;29;20323;-80
2020/12/16 12:11:13;;;;;;;16.75;11.82;;;10.80;85.40;;;;;;4926525;29;20204;-80
2020/12/16 12:13:41;;;;;;;12.20;10.90;;;10.70;85.80;;;;;;4926670;29;20291;-81
2020/12/16 12:16:07;;;;;;;19.70;11.90;;;10.80;87.40;;;;;;4924934;29;20224;-80
2020/12/16 12:18:34;;;;;;;15.50;12.95;;;10.90;87.40;;;;;;4924837;29;20245;-80
2020/12/16 12:24:15;;;;;;;12.98;11.63;;;11.20;85.80;;;;;;4907299;29;20205;-81
2020/12/16 12:26:41;;;;;;;13.70;10.98;;;11.50;82.80;;;;;;4920797;29;20217;-80
2020/12/16 12:29:08;;;;;;;28.00;12.18;;;11.70;80.60;;;;;;4910721;29;20583;-78
2020/12/16 12:31:34;;;;;;;21.35;13.10;;;11.80;79.60;;;;;;4904357;29;20727;-78
2020/12/16 12:34:00;;;;;;;14.07;11.00;;;11.90;78.00;;;;;;4910091;29;20221;-80
2020/12/16 12:36:27;;;;;;;11.60;10.43;;;12.00;77.40;;;;;;4910736;29;20303;-80
2020/12/16 12:38:55;;;;;;;12.38;10.63;;;12.20;76.40;;;;;;4908013;29;20233;-80
2020/12/16 12:41:23;;;;;;;13.50;10.52;;;12.30;74.50;;;;;;4921987;29;20205;-80
2020/12/16 12:43:49;;;;;;;16.30;11.63;;;12.40;72.80;;;;;;4926216;29;20213;-79
2020/12/16 12:46:16;;;;;;;11.23;10.13;;;12.50;72.80;;;;;;4924498;29;20310;-81